Terminal Aerodrome Forecast
Issued by NWS Jackson, KY

Home | Current Version | Previous Version | Text Only | Print | Product List | Glossary On
Versions: 1 2 3 4 5 6 7 8 9 10 11 12 13 14 15 16 17 18 19 20 21 22
000
FTUS43 KJKL 152300
TAFJKL
TAF
KJKL 152325Z 1600/1624 VRB03KT P6SM BKN180
     FM160700 00000KT P6SM OVC040
     FM161000 00000KT P6SM VCSH BKN022 OVC030
     FM161200 VRB03KT P6SM VCSH OVC018
     FM161600 VRB03KT P6SM BKN025
     FM162100 00000KT P6SM SCT035=

USA.gov is the U.S. government's official web portal to all federal, state and local government web resources and services.